Time;durP1;ratioP1;P1;durP2;ratioP2;P2;SDS_P1;SDS_P2;PMS_P1;PMS_P2;Temp;Humidity;BMP_temperature;BMP_pressure;BME280_temperature;BME280_humidity;BME280_pressure;Samples;Min_cycle;Max_cycle;Signal;HPM_P1;HPM_P2
2023/10/11 00:02:54;;;;;;;128.38;6.90;;;;;;;22.85;54.84;99482.28;7295821;19;130076;-39
2023/10/11 00:05:19;;;;;;;134.77;7.10;;;;;;;22.93;53.80;99471.88;7295418;19;130770;-33
2023/10/11 00:07:45;;;;;;;135.27;6.90;;;;;;;23.06;53.94;99477.53;7294809;19;129902;-36
2023/10/11 00:10:11;;;;;;;142.82;7.13;;;;;;;23.03;55.04;99485.72;7292629;19;129291;-38
2023/10/11 00:12:41;;;;;;;100.40;5.33;;;;;;;23.03;55.25;99480.47;7295377;19;131092;-35
2023/10/11 00:15:08;;;;;;;148.82;7.90;;;;;;;23.04;55.74;99488.19;7294503;19;130407;-35
2023/10/11 00:17:36;;;;;;;140.48;7.30;;;;;;;23.04;55.95;99482.13;7295111;19;131259;-37
2023/10/11 00:20:11;;;;;;;192.07;9.63;;;;;;;23.04;55.87;99474.25;7292447;19;129587;-37
2023/10/11 00:22:37;;;;;;;163.25;8.00;;;;;;;23.03;55.77;99470.00;7293228;19;130044;-38
2023/10/11 00:25:04;;;;;;;152.07;8.13;;;;;;;23.04;56.24;99472.47;7293958;19;130785;-36
2023/10/11 00:27:29;;;;;;;138.85;7.32;;;;;;;23.04;56.12;99476.88;7293081;19;129068;-38
2023/10/11 00:29:55;;;;;;;105.33;5.60;;;;;;;23.02;56.51;99479.66;7291775;19;129369;-38
2023/10/11 00:32:22;;;;;;;169.63;8.27;;;;;;;23.04;56.27;99472.47;7294672;19;130941;-37
2023/10/11 00:34:47;;;;;;;150.98;7.53;;;;;;;23.01;56.37;99461.44;7295174;19;131556;-38
2023/10/11 00:37:14;;;;;;;150.83;7.97;;;;;;;23.02;56.41;99471.78;7292608;19;129505;-40
2023/10/11 00:39:40;;;;;;;147.40;7.60;;;;;;;22.89;56.78;99453.00;7292119;19;129607;-36
2023/10/11 00:42:06;;;;;;;178.88;9.02;;;;;;;23.01;56.52;99464.91;7294523;19;130193;-35
2023/10/11 00:44:32;;;;;;;66.83;3.70;;;;;;;23.02;56.87;99463.91;7293012;19;130291;-36
2023/10/11 00:47:00;;;;;;;135.13;7.28;;;;;;;23.01;56.94;99461.44;7293553;19;130833;-33
2023/10/11 00:49:35;;;;;;;190.05;9.18;;;;;;;23.01;56.67;99466.69;7292894;19;130358;-39
2023/10/11 00:52:04;;;;;;;181.02;9.30;;;;;;;22.89;54.32;99465.31;7293787;19;130858;-35
2023/10/11 00:54:30;;;;;;;123.32;6.47;;;;;;;22.95;53.52;99465.50;7293665;19;131047;-36
2023/10/11 00:56:56;;;;;;;137.40;7.23;;;;;;;22.99;53.52;99473.91;7292900;19;129844;-39
2023/10/11 00:59:22;;;;;;;104.50;5.43;;;;;;;23.09;54.09;99461.50;7291659;19;129710;-40
2023/10/11 01:01:50;;;;;;;151.85;7.55;;;;;;;23.03;55.29;99465.56;7293313;19;130780;-36
2023/10/11 01:04:15;;;;;;;62.97;3.60;;;;;;;23.04;56.02;99463.75;7293096;19;133501;-37
2023/10/11 01:06:41;;;;;;;143.33;7.30;;;;;;;23.04;55.46;99458.50;7293539;19;132585;-37
2023/10/11 01:09:26;;;;;;;142.73;7.60;;;;;;;23.04;55.58;99455.88;7289313;19;130134;-35
2023/10/11 01:11:51;;;;;;;146.82;7.28;;;;;;;23.04;56.52;99450.66;7294004;19;131460;-35
2023/10/11 01:14:16;;;;;;;171.97;8.43;;;;;;;23.03;56.52;99449.00;7293256;19;132121;-37
2023/10/11 01:16:42;;;;;;;128.40;6.70;;;;;;;23.03;56.02;99447.22;7293448;19;129596;-38
2023/10/11 01:19:11;;;;;;;87.00;5.13;;;;;;;23.03;56.09;99449.84;7290820;19;129639;-34
2023/10/11 01:21:44;;;;;;;143.82;6.97;;;;;;;22.99;56.24;99443.25;7291755;19;130919;-39
2023/10/11 01:24:10;;;;;;;183.18;9.13;;;;;;;23.01;56.30;99450.97;7291487;19;132506;-37
2023/10/11 01:26:36;;;;;;;113.73;6.00;;;;;;;23.01;56.85;99445.72;7293880;19;131126;-37
2023/10/11 01:29:01;;;;;;;148.07;7.90;;;;;;;23.01;56.78;99448.34;7291502;19;132035;-36
2023/10/11 01:31:32;;;;;;;151.83;7.67;;;;;;;22.98;56.40;99446.84;7292648;19;130224;-36
2023/10/11 01:33:58;;;;;;;171.77;8.70;;;;;;;22.87;57.06;99423.47;7293384;19;132465;-38
2023/10/11 01:36:23;;;;;;;120.57;6.47;;;;;;;23.00;56.56;99444.06;7292653;19;129259;-40
2023/10/11 01:38:49;;;;;;;52.43;2.93;;;;;;;22.99;57.25;99443.25;7289612;19;131222;-38
2023/10/11 01:41:22;;;;;;;142.53;7.27;;;;;;;23.00;57.39;99446.69;7292717;19;131676;-35
2023/10/11 01:43:49;;;;;;;183.13;8.88;;;;;;;22.86;54.30;99441.97;7291117;19;129737;-40
2023/10/11 01:46:35;;;;;;;153.70;7.80;;;;;;;22.90;54.05;99435.47;7291335;19;129059;-37
2023/10/11 01:49:01;;;;;;;129.27;7.00;;;;;;;23.01;53.53;99427.34;7291206;19;130316;-41
2023/10/11 01:51:27;;;;;;;110.03;5.60;;;;;;;22.93;54.49;99411.56;7291810;19;129213;-39
2023/10/11 01:53:59;;;;;;;140.13;7.43;;;;;;;22.94;55.52;99408.00;7291340;19;130399;-34
2023/10/11 01:56:26;;;;;;;176.10;8.60;;;;;;;23.03;55.71;99435.91;7290669;19;129151;-39
2023/10/11 01:59:01;;;;;;;94.83;4.83;;;;;;;23.03;55.72;99433.28;7291303;19;129484;-41
2023/10/11 02:01:30;;;;;;;122.75;6.25;;;;;;;23.03;55.88;99438.53;7292525;19;130247;-43
2023/10/11 02:03:59;;;;;;;135.07;7.10;;;;;;;22.99;56.58;99437.19;7290419;19;131181;-41
2023/10/11 02:06:31;;;;;;;126.32;6.47;;;;;;;23.02;55.93;99432.44;7290264;19;129410;-36
2023/10/11 02:08:57;;;;;;;172.43;8.38;;;;;;;23.01;56.75;99432.59;7289835;19;131264;-39
2023/10/11 02:11:25;;;;;;;133.33;6.63;;;;;;;23.01;55.92;99440.47;7290769;19;130753;-36
2023/10/11 02:13:52;;;;;;;125.72;6.35;;;;;;;23.01;55.98;99435.22;7291706;19;130439;-38
2023/10/11 02:16:18;;;;;;;123.32;6.60;;;;;;;23.01;56.72;99435.22;7290295;19;129293;-35
2023/10/11 02:18:44;;;;;;;131.07;6.43;;;;;;;23.01;56.90;99427.34;7290063;19;128853;-36
2023/10/11 02:21:09;;;;;;;148.35;7.93;;;;;;;23.01;56.70;99422.13;7296148;19;130253;-41
2023/10/11 02:23:39;;;;;;;136.50;7.13;;;;;;;22.98;56.73;99420.63;7297628;19;130380;-36
2023/10/11 02:26:12;;;;;;;149.30;7.65;;;;;;;22.99;57.17;99421.47;7297109;19;129162;-40
2023/10/11 02:28:39;;;;;;;141.85;6.88;;;;;;;22.99;57.19;99424.91;7297197;19;130758;-33
2023/10/11 02:31:05;;;;;;;165.38;8.43;;;;;;;23.00;57.24;99425.72;7296099;19;130233;-41
2023/10/11 02:33:32;;;;;;;67.82;3.60;;;;;;;23.01;56.87;99424.72;7297749;19;130675;-38
2023/10/11 02:35:58;;;;;;;101.35;5.30;;;;;;;22.80;54.52;99405.91;7297923;19;130335;-38
2023/10/11 02:38:38;;;;;;;79.38;4.10;;;;;;;22.91;54.08;99405.66;7296728;19;129265;-37
2023/10/11 02:41:04;;;;;;;172.00;8.63;;;;;;;22.99;54.17;99416.22;7294619;19;130135;-33
2023/10/11 02:43:33;;;;;;;64.10;3.50;;;;;;;23.02;55.16;99415.91;7298194;19;129571;-38
2023/10/11 02:45:59;;;;;;;133.55;6.93;;;;;;;23.00;54.89;99408.19;7296868;19;129037;-38
2023/10/11 02:48:27;;;;;;;108.18;5.57;;;;;;;23.00;55.16;99425.72;7296508;19;129754;-38
2023/10/11 02:50:54;;;;;;;199.77;9.63;;;;;;;23.01;56.30;99419.50;7294995;19;131320;-39
2023/10/11 02:53:22;;;;;;;151.82;7.53;;;;;;;23.00;56.18;99408.19;7297209;19;130525;-37
2023/10/11 02:56:03;;;;;;;115.72;5.82;;;;;;;23.00;56.56;99408.19;7297463;19;129337;-41
2023/10/11 02:58:46;;;;;;;112.65;5.95;;;;;;;23.02;56.10;99405.44;7286563;19;131066;-35
2023/10/11 03:01:15;;;;;;;155.85;7.70;;;;;;;23.00;56.06;99408.19;7294201;19;130073;-35
2023/10/11 03:03:44;;;;;;;138.13;7.05;;;;;;;23.00;56.83;99391.63;7296590;19;130384;-37
2023/10/11 03:06:10;;;;;;;160.98;8.02;;;;;;;22.99;56.91;99390.00;7296074;19;129349;-37
2023/10/11 03:08:37;;;;;;;139.73;7.20;;;;;;;22.99;56.20;99400.50;7297578;19;129491;-36
2023/10/11 03:11:08;;;;;;;83.68;4.30;;;;;;;22.99;56.63;99392.63;7296760;19;131130;-41
2023/10/11 03:13:44;;;;;;;74.43;3.88;;;;;;;22.99;57.07;99390.00;7296011;19;130288;-36
2023/10/11 03:16:13;;;;;;;174.15;8.82;;;;;;;22.98;57.07;99398.81;7295687;19;129484;-38
2023/10/11 03:18:39;;;;;;;126.82;5.88;;;;;;;23.00;56.67;99381.16;7296272;19;130400;-40
2023/10/11 03:21:33;;;;;;;121.25;6.25;;;;;;;22.98;57.80;99388.34;7296257;19;131001;-36
2023/10/11 03:24:04;;;;;;;135.60;7.03;;;;;;;22.91;55.19;99384.69;7297096;19;130924;-37
2023/10/11 03:28:57;;;;;;;139.77;7.13;;;;;;;22.93;53.82;99380.09;7295887;19;130174;-35
2023/10/11 03:31:28;;;;;;;137.73;6.70;;;;;;;23.03;54.55;99380.84;7293676;19;130707;-38
2023/10/11 03:34:10;;;;;;;165.20;7.90;;;;;;;22.99;55.30;99379.53;7296046;19;130612;-38
2023/10/11 03:36:43;;;;;;;134.32;6.72;;;;;;;23.00;55.61;99375.91;7297140;19;128964;-37
2023/10/11 03:39:15;;;;;;;148.90;7.80;;;;;;;22.99;56.22;99369.81;7294389;19;129617;-35
2023/10/11 03:41:46;;;;;;;98.95;5.15;;;;;;;22.98;55.56;99377.84;7296699;19;130254;-37
2023/10/11 03:44:17;;;;;;;173.13;8.63;;;;;;;23.00;56.35;99379.34;7295756;19;130421;-39
2023/10/11 03:46:47;;;;;;;169.80;8.30;;;;;;;22.95;56.16;99365.88;7294502;19;129883;-38
2023/10/11 03:49:58;;;;;;;169.95;8.75;;;;;;;22.97;55.78;99370.97;7293913;19;129939;-37
2023/10/11 03:51:58;;;;;;;149.45;7.50;;;;;;;23.00;56.30;99370.66;7294522;19;130064;-41
2023/10/11 03:54:24;;;;;;;75.90;4.07;;;;;;;22.99;56.28;99369.03;7295547;19;129465;-41
2023/10/11 03:56:53;;;;;;;140.70;7.30;;;;;;;22.98;57.01;99360.34;7294214;19;129180;-38
2023/10/11 03:59:26;;;;;;;115.45;6.15;;;;;;;22.98;57.15;99370.00;7292945;19;129840;-39
2023/10/11 04:01:58;;;;;;;125.65;6.20;;;;;;;22.98;57.38;99356.88;7296510;19;132199;-37
2023/10/11 04:04:24;;;;;;;143.20;7.35;;;;;;;22.97;56.32;99361.28;7295091;19;131143;-41
2023/10/11 04:07:01;;;;;;;125.40;6.60;;;;;;;22.99;56.87;99369.03;7290273;19;130891;-40
2023/10/11 04:10:09;;;;;;;96.95;5.32;;;;;;;22.98;56.50;99373.44;7293768;19;129869;-35
2023/10/11 04:12:23;;;;;;;142.00;7.60;;;;;;;22.88;54.68;99361.41;7292880;19;130047;-39
2023/10/11 04:14:49;;;;;;;146.30;7.78;;;;;;;22.89;53.89;99358.63;7294128;19;131041;-39
2023/10/11 04:19:51;;;;;;;113.85;5.75;;;;;;;22.98;54.23;99362.13;7296027;19;131155;-35
2023/10/11 04:22:31;;;;;;;105.53;5.93;;;;;;;22.96;55.30;99358.81;7294314;19;131020;-34
2023/10/11 04:24:57;;;;;;;166.57;8.48;;;;;;;22.98;56.13;99360.34;7295362;19;132144;-37
2023/10/11 04:29:52;;;;;;;179.35;8.82;;;;;;;23.01;55.57;99353.94;7293865;19;129783;-36
2023/10/11 04:35:22;;;;;;;110.85;5.72;;;;;;;23.00;56.15;99344.44;7295265;19;129524;-39
2023/10/11 04:37:54;;;;;;;115.97;5.93;;;;;;;22.99;56.67;99348.84;7293595;19;129138;-38
2023/10/11 04:40:24;;;;;;;136.90;7.10;;;;;;;22.97;56.76;99340.31;7291965;19;129492;-33
2023/10/11 04:43:04;;;;;;;120.93;6.13;;;;;;;22.97;56.05;99334.28;7293939;19;129719;-35
2023/10/11 04:45:46;;;;;;;131.75;6.57;;;;;;;22.98;56.14;99330.66;7293183;19;130931;-39
2023/10/11 04:48:15;;;;;;;161.20;7.88;;;;;;;22.93;56.87;99328.50;7291906;19;129299;-39
2023/10/11 04:50:49;;;;;;;162.40;7.80;;;;;;;22.96;57.86;99333.44;7289673;19;129731;-39
2023/10/11 04:53:18;;;;;;;59.80;3.65;;;;;;;22.95;56.75;99315.25;7294021;19;130558;-39
2023/10/11 04:55:59;;;;;;;118.47;5.95;;;;;;;22.95;57.49;99337.06;7295056;19;131078;-33
2023/10/11 04:58:49;;;;;;;148.60;7.82;;;;;;;22.95;57.59;99323.13;7292095;19;131993;-39
2023/10/11 05:01:22;;;;;;;127.93;6.85;;;;;;;22.97;56.58;99336.91;7291356;19;129357;-32
2023/10/11 05:03:58;;;;;;;122.97;6.47;;;;;;;22.80;54.16;99332.50;7293577;19;130206;-41
2023/10/11 05:06:30;;;;;;;170.27;8.63;;;;;;;22.94;53.74;99339.84;7292196;19;131211;-36
2023/10/11 05:09:12;;;;;;;172.85;8.02;;;;;;;22.98;53.70;99335.91;7281824;19;129360;-38
2023/10/11 05:11:42;;;;;;;184.73;8.88;;;;;;;23.03;53.96;99341.50;7293948;19;129375;-36
2023/10/11 05:16:58;;;;;;;147.48;7.60;;;;;;;22.99;55.27;99332.31;7294135;19;131307;-38
2023/10/11 05:19:26;;;;;;;152.52;7.65;;;;;;;22.99;55.68;99337.56;7290802;19;129531;-36
2023/10/11 05:21:53;;;;;;;141.80;7.22;;;;;;;22.97;55.54;99339.50;7292364;19;129411;-38
2023/10/11 05:32:41;;;;;;;159.80;8.02;;;;;;;22.95;56.09;99341.47;7292541;19;133048;-36
2023/10/11 05:51:26;;;;;;;163.02;8.73;;;;;;;22.82;57.11;99320.09;7288483;19;129815;-35
2023/10/11 05:53:52;;;;;;;144.93;7.63;;;;;;;22.81;53.97;99348.09;7288600;19;129616;-37
2023/10/11 05:56:20;;;;;;;181.33;8.83;;;;;;;22.89;54.21;99353.38;7289726;19;130208;-36
2023/10/11 05:58:53;;;;;;;145.25;7.53;;;;;;;22.94;54.43;99350.31;7296157;19;131502;-36
2023/10/11 06:01:23;;;;;;;105.15;5.65;;;;;;;22.99;54.82;99358.53;7293728;19;129173;-36
2023/10/11 06:03:55;;;;;;;122.90;6.50;;;;;;;22.97;55.21;99350.81;7295803;19;129256;-37
2023/10/11 06:06:26;;;;;;;166.23;8.20;;;;;;;22.99;55.23;99359.34;7294884;19;130942;-38
2023/10/11 06:08:52;;;;;;;108.65;5.57;;;;;;;23.00;55.36;99357.56;7291302;19;131038;-37
2023/10/11 06:11:18;;;;;;;107.63;5.73;;;;;;;22.99;56.24;99353.31;7298140;19;129369;-35
2023/10/11 06:13:44;;;;;;;120.28;6.00;;;;;;;22.99;56.42;99355.91;7292758;19;129544;-37
2023/10/11 06:16:13;;;;;;;158.23;7.97;;;;;;;22.89;56.14;99349.94;7295185;19;130136;-38
2023/10/11 06:18:39;;;;;;;187.93;9.02;;;;;;;22.98;56.08;99352.47;7295826;19;129704;-38
2023/10/11 06:21:18;;;;;;;155.20;8.20;;;;;;;22.98;56.91;99349.84;7291089;19;132150;-38
2023/10/11 06:23:48;;;;;;;142.88;7.20;;;;;;;22.94;57.07;99348.50;7291536;19;130833;-37
2023/10/11 06:29:08;;;;;;;134.30;7.03;;;;;;;22.97;56.22;99350.00;7295814;19;131976;-39
2023/10/11 06:31:39;;;;;;;171.43;8.80;;;;;;;22.97;56.70;99350.81;7296406;19;130821;-39
2023/10/11 06:34:15;;;;;;;191.95;9.48;;;;;;;22.98;56.95;99362.13;7297301;19;129039;-40
2023/10/11 06:36:50;;;;;;;136.73;6.97;;;;;;;22.95;57.24;99359.81;7297486;19;130361;-37
2023/10/11 06:42:12;;;;;;;125.47;6.45;;;;;;;22.97;56.71;99355.25;7295995;19;129201;-39
2023/10/11 06:44:38;;;;;;;165.57;8.48;;;;;;;22.84;55.35;99360.06;7295123;19;129442;-36
2023/10/11 06:47:04;;;;;;;120.90;6.37;;;;;;;22.80;54.92;99354.31;7296425;19;130177;-39
2023/10/11 06:49:40;;;;;;;193.37;9.93;;;;;;;22.90;52.87;99354.22;7294193;19;130435;-37
2023/10/11 06:52:11;;;;;;;179.73;9.13;;;;;;;22.99;55.00;99363.78;7293625;19;130248;-39
2023/10/11 06:54:45;;;;;;;123.72;6.53;;;;;;;22.98;55.29;99364.75;7298018;19;129623;-39
2023/10/11 06:57:11;;;;;;;132.60;7.35;;;;;;;22.97;55.23;99365.72;7293443;19;130257;-39
2023/10/11 06:59:41;;;;;;;158.53;8.33;;;;;;;22.98;55.96;99367.38;7293329;19;129860;-40
2023/10/11 07:02:17;;;;;;;156.23;7.95;;;;;;;22.99;55.64;99366.41;7293510;19;129823;-37
2023/10/11 07:04:50;;;;;;;160.52;7.95;;;;;;;22.98;56.32;99360.34;7296353;19;129677;-36
2023/10/11 07:07:16;;;;;;;178.52;9.55;;;;;;;22.94;56.42;99366.03;7291082;19;130336;-39
2023/10/11 07:09:56;;;;;;;134.15;7.20;;;;;;;22.99;56.04;99371.66;7293969;19;129241;-37
2023/10/11 07:12:40;;;;;;;124.20;6.80;;;;;;;22.98;56.31;99372.59;7295362;19;130099;-39
2023/10/11 07:15:09;;;;;;;123.25;6.50;;;;;;;22.98;56.27;99367.38;7296659;19;130117;-36
2023/10/11 07:17:35;;;;;;;171.70;8.65;;;;;;;22.94;56.90;99364.22;7294836;19;130118;-38
2023/10/11 07:20:01;;;;;;;177.03;8.63;;;;;;;22.97;56.81;99370.97;7294102;19;129140;-37
2023/10/11 07:22:26;;;;;;;162.68;8.63;;;;;;;22.95;56.31;99373.75;7293942;19;131485;-37
2023/10/11 07:24:56;;;;;;;144.57;7.67;;;;;;;22.98;56.43;99377.84;7295009;19;133554;-34
2023/10/11 07:27:37;;;;;;;199.43;10.15;;;;;;;22.82;57.20;99346.28;7293418;19;130868;-36
2023/10/11 07:30:06;;;;;;;130.30;6.50;;;;;;;22.97;57.26;99384.09;7293804;19;130340;-34
2023/10/11 07:32:36;;;;;;;219.23;11.02;;;;;;;22.95;57.63;99362.44;7291908;19;129586;-38
2023/10/11 07:35:09;;;;;;;163.35;8.63;;;;;;;22.84;55.30;99360.06;7292714;19;130271;-36
2023/10/11 07:37:35;;;;;;;207.55;10.70;;;;;;;22.87;54.03;99371.06;7292183;19;131398;-40
2023/10/11 07:40:09;;;;;;;138.93;7.30;;;;;;;22.94;52.79;99371.28;7289938;19;129636;-39
2023/10/11 07:42:37;;;;;;;216.15;11.00;;;;;;;22.91;54.81;99358.47;7294983;19;130211;-36
2023/10/11 07:45:07;;;;;;;176.85;9.07;;;;;;;22.98;55.17;99373.44;7295848;19;132992;-37
2023/10/11 07:47:33;;;;;;;174.93;9.38;;;;;;;22.97;55.78;99363.13;7291556;19;130247;-37
2023/10/11 07:49:58;;;;;;;162.60;8.20;;;;;;;22.97;55.56;99371.78;7287862;19;131028;-38
2023/10/11 07:52:24;;;;;;;131.67;6.97;;;;;;;22.91;56.13;99347.97;7290134;19;132269;-36
2023/10/11 07:54:51;;;;;;;213.43;10.90;;;;;;;22.98;55.43;99373.44;7291300;19;129827;-40
2023/10/11 07:57:17;;;;;;;161.07;8.48;;;;;;;22.99;55.82;99372.44;7293246;19;130945;-37
2023/10/11 07:59:44;;;;;;;193.83;10.13;;;;;;;22.94;55.83;99361.59;7289485;19;132343;-39
2023/10/11 08:02:29;;;;;;;187.30;9.70;;;;;;;22.98;56.50;99360.34;7293365;19;129704;-36
2023/10/11 08:04:59;;;;;;;177.35;8.95;;;;;;;22.84;55.96;99344.34;7295007;19;130178;-39
2023/10/11 08:07:26;;;;;;;156.55;8.60;;;;;;;22.96;56.69;99359.66;7294096;19;132174;-37
2023/10/11 08:09:55;;;;;;;156.73;8.43;;;;;;;22.95;56.78;99354.56;7291872;19;131102;-39
2023/10/11 08:12:24;;;;;;;130.32;7.15;;;;;;;22.95;56.17;99347.53;7292731;19;131370;-38
2023/10/11 08:14:53;;;;;;;136.98;7.30;;;;;;;22.95;56.65;99363.25;7290374;19;130538;-40
2023/10/11 08:17:20;;;;;;;143.68;7.93;;;;;;;22.81;56.69;99334.16;7292149;19;131568;-37
2023/10/11 08:19:47;;;;;;;129.80;7.28;;;;;;;22.93;56.94;99346.03;7289432;19;130418;-39
2023/10/11 08:22:16;;;;;;;156.32;8.20;;;;;;;22.94;57.74;99352.94;7291915;19;130881;-38
2023/10/11 08:24:47;;;;;;;150.38;8.30;;;;;;;22.87;55.66;99355.31;7292386;19;129916;-36
2023/10/11 08:27:14;;;;;;;184.32;9.80;;;;;;;22.82;54.12;99347.13;7292982;19;130108;-36
2023/10/11 08:29:42;;;;;;;142.07;7.75;;;;;;;22.91;53.70;99347.97;7292233;19;130343;-37
2023/10/11 08:32:12;;;;;;;126.38;7.28;;;;;;;22.87;54.19;99317.81;7293038;19;130625;-38
2023/10/11 08:34:39;;;;;;;115.25;6.72;;;;;;;22.97;55.21;99344.75;7291885;19;129778;-37
2023/10/11 08:37:07;;;;;;;195.70;9.90;;;;;;;22.97;55.64;99344.75;7292167;19;130332;-39
2023/10/11 08:39:36;;;;;;;153.35;8.25;;;;;;;22.93;55.18;99344.25;7292298;19;130806;-37
2023/10/11 08:42:16;;;;;;;156.35;8.65;;;;;;;22.97;56.88;99350.00;7291329;19;129315;-37
2023/10/11 08:44:45;;;;;;;135.05;7.55;;;;;;;22.96;56.07;99345.72;7290230;19;129551;-38
2023/10/11 08:47:16;;;;;;;153.20;8.35;;;;;;;22.97;55.69;99350.00;7292475;19;130638;-39
2023/10/11 08:49:48;;;;;;;169.88;9.45;;;;;;;22.87;56.50;99333.56;7286380;19;130539;-40
2023/10/11 08:52:24;;;;;;;136.35;7.47;;;;;;;22.94;56.86;99351.13;7288520;19;129424;-38
2023/10/11 08:54:50;;;;;;;113.35;6.53;;;;;;;22.93;56.59;99348.66;7292558;19;130565;-37
2023/10/11 08:57:23;;;;;;;217.20;12.18;;;;;;;22.94;57.44;99345.06;7290702;19;131309;-37
2023/10/11 08:59:50;;;;;;;168.98;9.52;;;;;;;22.96;56.31;99354.41;7288707;19;130329;-37
2023/10/11 09:02:17;;;;;;;139.82;7.68;;;;;;;22.95;56.38;99346.69;7290938;19;131166;-39
2023/10/11 09:05:00;;;;;;;188.32;9.98;;;;;;;22.91;57.38;99338.31;7290256;19;130312;-36
2023/10/11 09:07:39;;;;;;;175.68;10.05;;;;;;;22.93;58.13;99343.41;7289939;19;130413;-34
2023/10/11 09:10:23;;;;;;;131.10;7.70;;;;;;;22.93;58.12;99338.16;7290808;19;130414;-36
2023/10/11 09:12:49;;;;;;;179.27;10.10;;;;;;;22.77;54.89;99343.31;7288775;19;129537;-36
2023/10/11 09:15:14;;;;;;;136.30;7.77;;;;;;;22.84;53.77;99347.78;7288906;19;131443;-37
2023/10/11 09:17:40;;;;;;;224.90;12.00;;;;;;;22.90;52.92;99344.56;7287559;19;129418;-38
2023/10/11 09:20:24;;;;;;;178.03;9.60;;;;;;;22.95;54.47;99341.47;7285624;19;130339;-37
2023/10/11 09:22:55;;;;;;;167.93;9.35;;;;;;;22.97;55.28;99334.28;7291283;19;130331;-36
2023/10/11 09:25:22;;;;;;;121.60;7.20;;;;;;;22.95;55.35;99339.66;7291136;19;130384;-35
2023/10/11 09:27:51;;;;;;;153.10;8.55;;;;;;;22.97;55.48;99336.91;7289942;19;130469;-37
2023/10/11 09:30:21;;;;;;;133.10;7.68;;;;;;;22.93;55.51;99325.88;7288069;19;131382;-36
2023/10/11 09:32:51;;;;;;;173.82;9.25;;;;;;;22.97;56.16;99329.03;7292722;19;131255;-38
2023/10/11 09:35:28;;;;;;;143.20;8.25;;;;;;;22.97;57.15;99334.28;7287661;19;130185;-37
2023/10/11 09:37:59;;;;;;;159.57;8.65;;;;;;;22.93;56.80;99332.91;7290732;19;130693;-37
2023/10/11 09:40:34;;;;;;;132.70;7.53;;;;;;;22.95;55.77;99333.59;7289355;19;130434;-37
2023/10/11 09:43:00;;;;;;;110.47;6.63;;;;;;;22.91;56.23;99334.88;7289369;19;129919;-37
2023/10/11 09:45:29;;;;;;;160.38;8.98;;;;;;;22.93;57.30;99332.91;7289871;19;130569;-38
2023/10/11 09:47:55;;;;;;;107.53;6.50;;;;;;;22.94;56.25;99332.75;7289599;19;130657;-38
2023/10/11 09:50:26;;;;;;;135.63;7.93;;;;;;;22.95;57.33;99336.22;7283694;19;130831;-38
2023/10/11 09:52:53;;;;;;;167.30;9.52;;;;;;;22.95;56.11;99336.22;7287906;19;131523;-35
2023/10/11 09:55:31;;;;;;;123.70;6.95;;;;;;;22.92;57.07;99332.09;7290489;19;129681;-38
2023/10/11 09:58:33;;;;;;;178.85;9.27;;;;;;;22.93;57.31;99338.16;7287238;19;130413;-38
2023/10/11 10:01:10;;;;;;;155.85;8.43;;;;;;;22.93;57.42;99343.41;7282925;19;131912;-36
2023/10/11 10:03:38;;;;;;;141.38;8.05;;;;;;;22.78;54.20;99340.53;7289331;19;129195;-36
2023/10/11 10:06:06;;;;;;;163.60;8.52;;;;;;;22.84;53.70;99341.72;7288981;19;129992;-39
2023/10/11 10:08:32;;;;;;;113.20;6.43;;;;;;;22.78;53.19;99316.09;7288603;19;131033;-37
2023/10/11 10:10:58;;;;;;;134.00;7.57;;;;;;;22.95;54.41;99338.84;7285065;19;131284;-39
2023/10/11 10:13:26;;;;;;;166.17;8.87;;;;;;;22.82;55.38;99333.19;7285169;19;130028;-35
2023/10/11 10:15:53;;;;;;;190.50;10.20;;;;;;;22.95;54.93;99344.91;7289198;19;129084;-38
2023/10/11 10:18:19;;;;;;;143.43;7.88;;;;;;;22.94;55.05;99345.88;7282945;19;132456;-37
2023/10/11 10:20:46;;;;;;;157.52;8.93;;;;;;;22.97;55.48;99344.75;7287661;19;133009;-34
2023/10/11 10:23:15;;;;;;;159.82;8.35;;;;;;;22.94;56.13;99338.00;7284591;19;129622;-34
2023/10/11 10:26:05;;;;;;;154.63;8.63;;;;;;;22.94;56.66;99335.38;7289298;19;130165;-38
2023/10/11 10:28:39;;;;;;;184.75;9.50;;;;;;;22.93;56.12;99333.75;7286564;19;130416;-33
2023/10/11 10:31:04;;;;;;;177.65;9.82;;;;;;;22.94;55.67;99335.38;7287202;19;131148;-36
2023/10/11 10:33:35;;;;;;;153.23;8.20;;;;;;;22.92;56.03;99331.28;7286137;19;130508;-37
2023/10/11 10:36:20;;;;;;;137.02;7.68;;;;;;;22.82;57.46;99307.81;7289441;19;130071;-39
2023/10/11 10:39:01;;;;;;;145.43;8.38;;;;;;;22.78;57.92;99303.00;7284012;19;130426;-36
2023/10/11 10:41:33;;;;;;;124.45;6.95;;;;;;;22.92;56.89;99321.59;7290717;19;132170;-37
2023/10/11 10:44:18;;;;;;;204.27;10.70;;;;;;;22.92;57.69;99324.22;7294233;19;131091;-38
2023/10/11 10:46:53;;;;;;;217.70;11.45;;;;;;;22.92;57.64;99326.84;7291448;19;130335;-35
2023/10/11 10:49:47;;;;;;;153.77;8.55;;;;;;;22.92;58.09;99311.13;7294027;19;131010;-38
2023/10/11 10:52:21;;;;;;;214.05;11.68;;;;;;;22.93;57.25;99323.28;7294061;19;131888;-35
2023/10/11 10:55:04;;;;;;;141.93;7.97;;;;;;;22.86;55.62;99316.16;7295559;19;129189;-37
2023/10/11 10:57:39;;;;;;;152.50;8.55;;;;;;;22.80;53.94;99315.00;7294399;19;129826;-34
2023/10/11 11:00:23;;;;;;;147.98;8.15;;;;;;;22.87;53.08;99312.56;7290231;19;131436;-36
2023/10/11 11:02:49;;;;;;;143.95;8.63;;;;;;;22.94;54.83;99313.63;7292397;19;130487;-36
2023/10/11 11:05:15;;;;;;;;;;;;;;;22.93;55.96;99301.47;7296926;19;130604;-38
2023/10/11 11:07:47;;;;;;;231.68;12.23;;;;;;;22.94;56.02;99300.50;7293037;19;129080;-37
2023/10/11 11:10:20;;;;;;;85.78;5.20;;;;;;;22.94;56.49;99303.94;7294384;19;131910;-37
2023/10/11 11:12:46;;;;;;;162.40;9.13;;;;;;;22.94;55.80;99292.63;7290760;19;131215;-38
2023/10/11 11:15:20;;;;;;;138.73;7.82;;;;;;;22.94;56.00;99290.81;7291277;19;132741;-38
2023/10/11 11:17:48;;;;;;;200.98;11.15;;;;;;;22.93;56.23;99283.09;7289838;19;130498;-33
2023/10/11 11:20:15;;;;;;;155.10;8.27;;;;;;;22.93;56.31;99280.50;7292791;19;129399;-38
2023/10/11 11:22:46;;;;;;;157.90;8.90;;;;;;;22.90;56.66;99280.81;7296972;19;131706;-41
2023/10/11 11:25:27;;;;;;;151.10;8.20;;;;;;;22.89;56.46;99264.25;7295042;19;130410;-41
2023/10/11 11:28:15;;;;;;;150.52;8.77;;;;;;;22.92;58.05;99273.63;7293869;19;129952;-37
2023/10/11 11:31:05;;;;;;;121.20;6.90;;;;;;;22.93;56.66;99270.00;7292428;19;130777;-35
2023/10/11 11:33:35;;;;;;;158.77;8.50;;;;;;;22.92;56.46;99268.38;7293633;19;130422;-39
2023/10/11 11:36:10;;;;;;;189.32;10.20;;;;;;;22.76;56.58;99244.66;7290874;19;129633;-40
2023/10/11 11:38:37;;;;;;;182.82;9.65;;;;;;;22.89;57.15;99268.69;7292692;19;129657;-41
2023/10/11 11:41:05;;;;;;;156.15;8.23;;;;;;;22.91;56.38;99266.72;7295010;19;131140;-36
2023/10/11 11:43:34;;;;;;;153.18;8.40;;;;;;;22.91;57.40;99262.31;7294880;19;131154;-39
2023/10/11 11:46:02;;;;;;;144.60;8.35;;;;;;;22.76;54.56;99257.78;7293973;19;130827;-38
2023/10/11 11:48:28;;;;;;;126.30;6.85;;;;;;;22.67;53.58;99243.84;7293756;19;129050;-36
2023/10/11 11:50:56;;;;;;;194.40;10.45;;;;;;;22.91;54.55;99266.72;7287811;19;129869;-40
2023/10/11 11:53:22;;;;;;;135.65;7.82;;;;;;;22.93;54.85;99260.34;7295328;19;131152;-37
2023/10/11 11:55:47;;;;;;;135.50;7.83;;;;;;;22.89;55.60;99258.19;7290457;19;129495;-35
2023/10/11 11:58:16;;;;;;;121.60;6.93;;;;;;;22.95;55.51;99257.56;7293249;19;129216;-35
2023/10/11 12:01:27;;;;;;;143.38;7.65;;;;;;;22.95;55.74;99257.56;7287644;19;130167;-34
2023/10/11 12:03:28;;;;;;;170.73;9.15;;;;;;;22.93;56.19;99249.03;7292381;19;130224;-41
2023/10/11 12:05:53;;;;;;;156.70;8.73;;;;;;;22.96;55.86;99254.78;7291157;19;129138;-37
2023/10/11 12:08:23;;;;;;;145.85;8.57;;;;;;;22.95;56.27;99247.09;7288662;19;130217;-40
2023/10/11 12:10:49;;;;;;;135.07;7.80;;;;;;;22.94;55.93;99242.84;7288518;19;130554;-35